sensor_id;sensor_type;location;lat;lon;timestamp;P1;durP1;ratioP1;P2;durP2;ratioP2
74074;SDS011;62428;51.412;5.432;2023-04-16T00:01:57;5.00;;;1.00;;
74074;SDS011;62428;51.412;5.432;2023-04-16T00:04:22;3.30;;;1.00;;
74074;SDS011;62428;51.412;5.432;2023-04-16T00:06:47;5.00;;;1.10;;
74074;SDS011;62428;51.412;5.432;2023-04-16T00:09:13;7.80;;;1.33;;
74074;SDS011;62428;51.412;5.432;2023-04-16T00:11:38;8.13;;;1.37;;
74074;SDS011;62428;51.412;5.432;2023-04-16T00:14:03;9.53;;;1.30;;
74074;SDS011;62428;51.412;5.432;2023-04-16T00:16:29;12.88;;;1.25;;
74074;SDS011;62428;51.412;5.432;2023-04-16T00:18:54;10.77;;;1.50;;
74074;SDS011;62428;51.412;5.432;2023-04-16T00:21:20;6.53;;;1.27;;
74074;SDS011;62428;51.412;5.432;2023-04-16T00:23:45;7.87;;;1.30;;
74074;SDS011;62428;51.412;5.432;2023-04-16T00:26:10;7.57;;;1.00;;
74074;SDS011;62428;51.412;5.432;2023-04-16T00:28:36;3.77;;;1.00;;
74074;SDS011;62428;51.412;5.432;2023-04-16T00:31:01;3.63;;;0.93;;
74074;SDS011;62428;51.412;5.432;2023-04-16T00:33:26;5.80;;;1.10;;
74074;SDS011;62428;51.412;5.432;2023-04-16T00:35:54;4.40;;;1.35;;
74074;SDS011;62428;51.412;5.432;2023-04-16T00:38:19;6.27;;;1.30;;
74074;SDS011;62428;51.412;5.432;2023-04-16T00:40:44;7.07;;;1.40;;
74074;SDS011;62428;51.412;5.432;2023-04-16T00:43:10;6.77;;;1.63;;
74074;SDS011;62428;51.412;5.432;2023-04-16T00:45:35;3.33;;;1.10;;
74074;SDS011;62428;51.412;5.432;2023-04-16T00:48:01;2.80;;;1.10;;
74074;SDS011;62428;51.412;5.432;2023-04-16T00:50:26;6.20;;;1.30;;
74074;SDS011;62428;51.412;5.432;2023-04-16T00:52:52;8.73;;;1.43;;
74074;SDS011;62428;51.412;5.432;2023-04-16T00:55:17;7.37;;;1.40;;
74074;SDS011;62428;51.412;5.432;2023-04-16T00:57:45;6.68;;;1.15;;
74074;SDS011;62428;51.412;5.432;2023-04-16T01:00:10;5.23;;;1.50;;
74074;SDS011;62428;51.412;5.432;2023-04-16T01:02:36;4.47;;;1.17;;
74074;SDS011;62428;51.412;5.432;2023-04-16T01:05:03;8.17;;;1.83;;
74074;SDS011;62428;51.412;5.432;2023-04-16T01:07:29;6.35;;;1.50;;
74074;SDS011;62428;51.412;5.432;2023-04-16T01:09:54;4.80;;;1.50;;
74074;SDS011;62428;51.412;5.432;2023-04-16T01:12:20;6.72;;;1.77;;
74074;SDS011;62428;51.412;5.432;2023-04-16T01:14:45;7.97;;;1.80;;
74074;SDS011;62428;51.412;5.432;2023-04-16T01:17:11;5.50;;;1.40;;
74074;SDS011;62428;51.412;5.432;2023-04-16T01:19:36;9.57;;;2.00;;
74074;SDS011;62428;51.412;5.432;2023-04-16T01:22:02;8.53;;;1.90;;
74074;SDS011;62428;51.412;5.432;2023-04-16T01:24:28;7.63;;;1.80;;
74074;SDS011;62428;51.412;5.432;2023-04-16T01:26:53;4.13;;;1.80;;
74074;SDS011;62428;51.412;5.432;2023-04-16T01:29:19;9.77;;;2.10;;
74074;SDS011;62428;51.412;5.432;2023-04-16T01:31:44;9.17;;;1.70;;
74074;SDS011;62428;51.412;5.432;2023-04-16T01:34:10;6.45;;;1.90;;
74074;SDS011;62428;51.412;5.432;2023-04-16T01:36:36;8.65;;;1.90;;
74074;SDS011;62428;51.412;5.432;2023-04-16T01:39:01;10.70;;;1.87;;
74074;SDS011;62428;51.412;5.432;2023-04-16T01:41:27;7.40;;;1.80;;
74074;SDS011;62428;51.412;5.432;2023-04-16T01:43:52;7.37;;;1.70;;
74074;SDS011;62428;51.412;5.432;2023-04-16T01:46:22;9.30;;;2.20;;
74074;SDS011;62428;51.412;5.432;2023-04-16T01:48:53;6.80;;;2.20;;
74074;SDS011;62428;51.412;5.432;2023-04-16T01:51:19;5.57;;;2.33;;
74074;SDS011;62428;51.412;5.432;2023-04-16T01:53:44;9.18;;;2.50;;
74074;SDS011;62428;51.412;5.432;2023-04-16T01:56:10;6.83;;;1.97;;
74074;SDS011;62428;51.412;5.432;2023-04-16T01:58:35;6.30;;;2.27;;
74074;SDS011;62428;51.412;5.432;2023-04-16T02:01:00;5.20;;;2.17;;
74074;SDS011;62428;51.412;5.432;2023-04-16T02:03:26;5.47;;;2.07;;
74074;SDS011;62428;51.412;5.432;2023-04-16T02:05:52;6.80;;;2.65;;
74074;SDS011;62428;51.412;5.432;2023-04-16T02:08:17;12.87;;;2.70;;
74074;SDS011;62428;51.412;5.432;2023-04-16T02:10:46;8.48;;;2.83;;
74074;SDS011;62428;51.412;5.432;2023-04-16T02:13:13;7.38;;;2.53;;
74074;SDS011;62428;51.412;5.432;2023-04-16T02:15:39;6.63;;;2.72;;
74074;SDS011;62428;51.412;5.432;2023-04-16T02:18:04;7.33;;;2.80;;
74074;SDS011;62428;51.412;5.432;2023-04-16T02:20:29;8.30;;;2.90;;
74074;SDS011;62428;51.412;5.432;2023-04-16T02:22:55;8.10;;;3.13;;
74074;SDS011;62428;51.412;5.432;2023-04-16T02:25:20;9.85;;;2.80;;
74074;SDS011;62428;51.412;5.432;2023-04-16T02:27:47;8.17;;;2.87;;
74074;SDS011;62428;51.412;5.432;2023-04-16T02:30:12;8.70;;;2.63;;
74074;SDS011;62428;51.412;5.432;2023-04-16T02:32:37;8.70;;;3.25;;
74074;SDS011;62428;51.412;5.432;2023-04-16T02:35:03;5.03;;;2.33;;
74074;SDS011;62428;51.412;5.432;2023-04-16T02:37:28;8.57;;;2.53;;
74074;SDS011;62428;51.412;5.432;2023-04-16T02:39:54;6.00;;;2.67;;
74074;SDS011;62428;51.412;5.432;2023-04-16T02:42:19;7.28;;;2.92;;
74074;SDS011;62428;51.412;5.432;2023-04-16T02:44:44;5.30;;;2.70;;
74074;SDS011;62428;51.412;5.432;2023-04-16T02:47:10;5.67;;;2.97;;
74074;SDS011;62428;51.412;5.432;2023-04-16T02:49:35;6.70;;;3.07;;
74074;SDS011;62428;51.412;5.432;2023-04-16T02:52:00;7.33;;;2.83;;
74074;SDS011;62428;51.412;5.432;2023-04-16T02:54:26;8.40;;;3.10;;
74074;SDS011;62428;51.412;5.432;2023-04-16T02:56:51;7.63;;;2.87;;
74074;SDS011;62428;51.412;5.432;2023-04-16T02:59:16;9.90;;;3.57;;
74074;SDS011;62428;51.412;5.432;2023-04-16T03:01:41;11.40;;;3.35;;
74074;SDS011;62428;51.412;5.432;2023-04-16T03:04:07;10.30;;;3.42;;
74074;SDS011;62428;51.412;5.432;2023-04-16T03:06:32;7.87;;;3.27;;
74074;SDS011;62428;51.412;5.432;2023-04-16T03:08:57;6.80;;;3.20;;
74074;SDS011;62428;51.412;5.432;2023-04-16T03:11:23;10.07;;;3.57;;
74074;SDS011;62428;51.412;5.432;2023-04-16T03:13:48;11.73;;;3.57;;
74074;SDS011;62428;51.412;5.432;2023-04-16T03:16:14;8.73;;;3.27;;
74074;SDS011;62428;51.412;5.432;2023-04-16T03:18:39;9.05;;;3.38;;
74074;SDS011;62428;51.412;5.432;2023-04-16T03:21:04;7.25;;;3.00;;
74074;SDS011;62428;51.412;5.432;2023-04-16T03:23:30;6.97;;;3.13;;
74074;SDS011;62428;51.412;5.432;2023-04-16T03:25:56;7.20;;;3.20;;
74074;SDS011;62428;51.412;5.432;2023-04-16T03:28:21;6.90;;;3.20;;
74074;SDS011;62428;51.412;5.432;2023-04-16T03:30:50;10.20;;;3.70;;
74074;SDS011;62428;51.412;5.432;2023-04-16T03:33:18;8.63;;;3.53;;
74074;SDS011;62428;51.412;5.432;2023-04-16T03:35:44;14.83;;;4.30;;
74074;SDS011;62428;51.412;5.432;2023-04-16T03:38:10;11.27;;;4.30;;
74074;SDS011;62428;51.412;5.432;2023-04-16T03:40:36;8.57;;;4.30;;
74074;SDS011;62428;51.412;5.432;2023-04-16T03:43:01;11.88;;;4.63;;
74074;SDS011;62428;51.412;5.432;2023-04-16T03:45:26;12.77;;;4.70;;
74074;SDS011;62428;51.412;5.432;2023-04-16T03:47:52;14.43;;;4.50;;
74074;SDS011;62428;51.412;5.432;2023-04-16T03:50:17;9.93;;;4.53;;
74074;SDS011;62428;51.412;5.432;2023-04-16T03:52:43;9.60;;;4.80;;
74074;SDS011;62428;51.412;5.432;2023-04-16T03:55:10;12.63;;;4.88;;
74074;SDS011;62428;51.412;5.432;2023-04-16T03:57:36;9.93;;;5.23;;
74074;SDS011;62428;51.412;5.432;2023-04-16T04:00:02;11.57;;;5.10;;
74074;SDS011;62428;51.412;5.432;2023-04-16T04:02:28;10.73;;;5.20;;
74074;SDS011;62428;51.412;5.432;2023-04-16T04:04:53;13.90;;;5.63;;
74074;SDS011;62428;51.412;5.432;2023-04-16T04:07:18;17.53;;;5.27;;
74074;SDS011;62428;51.412;5.432;2023-04-16T04:09:44;10.23;;;5.32;;
74074;SDS011;62428;51.412;5.432;2023-04-16T04:12:09;12.27;;;5.63;;
74074;SDS011;62428;51.412;5.432;2023-04-16T04:14:34;13.40;;;5.90;;
74074;SDS011;62428;51.412;5.432;2023-04-16T04:17:04;14.18;;;5.75;;
74074;SDS011;62428;51.412;5.432;2023-04-16T04:19:29;14.50;;;5.97;;
74074;SDS011;62428;51.412;5.432;2023-04-16T04:21:55;13.60;;;5.72;;
74074;SDS011;62428;51.412;5.432;2023-04-16T04:24:20;13.63;;;5.63;;
74074;SDS011;62428;51.412;5.432;2023-04-16T04:26:45;12.37;;;5.57;;
74074;SDS011;62428;51.412;5.432;2023-04-16T04:29:11;11.50;;;6.00;;
74074;SDS011;62428;51.412;5.432;2023-04-16T04:31:37;15.93;;;6.80;;
74074;SDS011;62428;51.412;5.432;2023-04-16T04:34:02;12.00;;;5.47;;
74074;SDS011;62428;51.412;5.432;2023-04-16T04:36:28;13.10;;;5.97;;
74074;SDS011;62428;51.412;5.432;2023-04-16T04:38:53;10.63;;;5.30;;
74074;SDS011;62428;51.412;5.432;2023-04-16T04:41:18;13.90;;;5.80;;
74074;SDS011;62428;51.412;5.432;2023-04-16T04:43:44;15.88;;;6.00;;
74074;SDS011;62428;51.412;5.432;2023-04-16T04:46:09;15.82;;;5.70;;
74074;SDS011;62428;51.412;5.432;2023-04-16T04:48:34;10.80;;;5.20;;
74074;SDS011;62428;51.412;5.432;2023-04-16T04:51:00;13.57;;;6.27;;
74074;SDS011;62428;51.412;5.432;2023-04-16T04:53:28;17.60;;;6.00;;
74074;SDS011;62428;51.412;5.432;2023-04-16T04:55:53;15.20;;;5.33;;
74074;SDS011;62428;51.412;5.432;2023-04-16T04:58:18;18.73;;;5.70;;
74074;SDS011;62428;51.412;5.432;2023-04-16T05:00:44;16.70;;;6.17;;
74074;SDS011;62428;51.412;5.432;2023-04-16T05:03:09;24.08;;;6.10;;
74074;SDS011;62428;51.412;5.432;2023-04-16T05:05:35;15.73;;;6.65;;
74074;SDS011;62428;51.412;5.432;2023-04-16T05:08:01;16.08;;;6.30;;
74074;SDS011;62428;51.412;5.432;2023-04-16T05:10:26;14.40;;;5.47;;
74074;SDS011;62428;51.412;5.432;2023-04-16T05:12:52;16.47;;;6.20;;
74074;SDS011;62428;51.412;5.432;2023-04-16T05:15:17;14.53;;;6.17;;
74074;SDS011;62428;51.412;5.432;2023-04-16T05:17:42;15.03;;;6.60;;
74074;SDS011;62428;51.412;5.432;2023-04-16T05:20:08;19.57;;;6.83;;
74074;SDS011;62428;51.412;5.432;2023-04-16T05:22:34;17.42;;;6.93;;
74074;SDS011;62428;51.412;5.432;2023-04-16T05:24:59;16.10;;;6.53;;
74074;SDS011;62428;51.412;5.432;2023-04-16T05:27:24;13.90;;;6.55;;
74074;SDS011;62428;51.412;5.432;2023-04-16T05:29:50;17.15;;;6.47;;
74074;SDS011;62428;51.412;5.432;2023-04-16T05:32:15;14.37;;;6.00;;
74074;SDS011;62428;51.412;5.432;2023-04-16T05:34:40;14.37;;;6.17;;
74074;SDS011;62428;51.412;5.432;2023-04-16T05:37:06;13.60;;;6.57;;
74074;SDS011;62428;51.412;5.432;2023-04-16T05:39:31;14.83;;;6.37;;
74074;SDS011;62428;51.412;5.432;2023-04-16T05:41:56;17.60;;;6.07;;
74074;SDS011;62428;51.412;5.432;2023-04-16T05:44:22;18.00;;;6.67;;
74074;SDS011;62428;51.412;5.432;2023-04-16T05:46:47;14.83;;;5.90;;
74074;SDS011;62428;51.412;5.432;2023-04-16T05:49:12;21.43;;;7.23;;
74074;SDS011;62428;51.412;5.432;2023-04-16T05:51:38;15.40;;;6.53;;
74074;SDS011;62428;51.412;5.432;2023-04-16T05:54:03;15.70;;;5.70;;
74074;SDS011;62428;51.412;5.432;2023-04-16T05:56:28;15.73;;;6.40;;
74074;SDS011;62428;51.412;5.432;2023-04-16T05:58:54;18.23;;;7.57;;
74074;SDS011;62428;51.412;5.432;2023-04-16T06:01:20;17.70;;;7.23;;
74074;SDS011;62428;51.412;5.432;2023-04-16T06:03:45;13.10;;;6.38;;
74074;SDS011;62428;51.412;5.432;2023-04-16T06:06:10;14.13;;;6.77;;
74074;SDS011;62428;51.412;5.432;2023-04-16T06:08:36;15.20;;;6.47;;
74074;SDS011;62428;51.412;5.432;2023-04-16T06:11:02;17.13;;;5.83;;
74074;SDS011;62428;51.412;5.432;2023-04-16T06:13:27;16.95;;;6.50;;
74074;SDS011;62428;51.412;5.432;2023-04-16T06:15:52;13.67;;;6.40;;
74074;SDS011;62428;51.412;5.432;2023-04-16T06:18:18;16.90;;;5.93;;
74074;SDS011;62428;51.412;5.432;2023-04-16T06:20:43;16.00;;;6.73;;
74074;SDS011;62428;51.412;5.432;2023-04-16T06:23:08;19.90;;;6.53;;
74074;SDS011;62428;51.412;5.432;2023-04-16T06:25:34;16.33;;;6.57;;
74074;SDS011;62428;51.412;5.432;2023-04-16T06:27:59;17.80;;;5.83;;
74074;SDS011;62428;51.412;5.432;2023-04-16T06:30:24;18.40;;;6.73;;
74074;SDS011;62428;51.412;5.432;2023-04-16T06:32:50;15.20;;;6.10;;
74074;SDS011;62428;51.412;5.432;2023-04-16T06:35:16;19.85;;;7.45;;
74074;SDS011;62428;51.412;5.432;2023-04-16T06:37:43;15.82;;;6.43;;
74074;SDS011;62428;51.412;5.432;2023-04-16T06:40:09;15.27;;;6.40;;
74074;SDS011;62428;51.412;5.432;2023-04-16T06:42:35;19.10;;;7.43;;
74074;SDS011;62428;51.412;5.432;2023-04-16T06:45:00;21.77;;;7.10;;
74074;SDS011;62428;51.412;5.432;2023-04-16T06:47:25;20.15;;;6.47;;
74074;SDS011;62428;51.412;5.432;2023-04-16T06:49:51;17.67;;;6.60;;
74074;SDS011;62428;51.412;5.432;2023-04-16T06:52:16;14.23;;;6.23;;
74074;SDS011;62428;51.412;5.432;2023-04-16T06:54:41;19.30;;;6.07;;
74074;SDS011;62428;51.412;5.432;2023-04-16T06:57:07;17.37;;;6.20;;
74074;SDS011;62428;51.412;5.432;2023-04-16T06:59:32;21.80;;;7.00;;
74074;SDS011;62428;51.412;5.432;2023-04-16T07:01:57;17.33;;;6.50;;
74074;SDS011;62428;51.412;5.432;2023-04-16T07:04:23;13.30;;;5.75;;
74074;SDS011;62428;51.412;5.432;2023-04-16T07:06:48;14.85;;;6.20;;
74074;SDS011;62428;51.412;5.432;2023-04-16T07:09:13;20.37;;;6.70;;
74074;SDS011;62428;51.412;5.432;2023-04-16T07:11:39;14.47;;;6.30;;
74074;SDS011;62428;51.412;5.432;2023-04-16T07:14:05;15.77;;;5.63;;
74074;SDS011;62428;51.412;5.432;2023-04-16T07:16:31;16.43;;;6.70;;
74074;SDS011;62428;51.412;5.432;2023-04-16T07:18:56;19.30;;;7.07;;
74074;SDS011;62428;51.412;5.432;2023-04-16T07:21:21;18.17;;;6.50;;
74074;SDS011;62428;51.412;5.432;2023-04-16T07:23:47;15.60;;;6.35;;
74074;SDS011;62428;51.412;5.432;2023-04-16T07:26:12;15.97;;;6.13;;
74074;SDS011;62428;51.412;5.432;2023-04-16T07:28:37;16.73;;;6.53;;
74074;SDS011;62428;51.412;5.432;2023-04-16T07:31:03;15.13;;;5.93;;
74074;SDS011;62428;51.412;5.432;2023-04-16T07:33:28;12.97;;;5.57;;
74074;SDS011;62428;51.412;5.432;2023-04-16T07:35:53;12.70;;;6.27;;
74074;SDS011;62428;51.412;5.432;2023-04-16T07:38:19;19.97;;;5.90;;
74074;SDS011;62428;51.412;5.432;2023-04-16T07:40:44;20.45;;;6.38;;
74074;SDS011;62428;51.412;5.432;2023-04-16T07:43:10;14.75;;;6.03;;
74074;SDS011;62428;51.412;5.432;2023-04-16T07:45:35;16.27;;;6.57;;
74074;SDS011;62428;51.412;5.432;2023-04-16T07:48:01;15.63;;;5.90;;
74074;SDS011;62428;51.412;5.432;2023-04-16T07:50:26;19.67;;;7.07;;
74074;SDS011;62428;51.412;5.432;2023-04-16T07:52:52;17.52;;;6.75;;
74074;SDS011;62428;51.412;5.432;2023-04-16T07:55:17;21.87;;;7.47;;
74074;SDS011;62428;51.412;5.432;2023-04-16T07:57:43;18.65;;;6.78;;
74074;SDS011;62428;51.412;5.432;2023-04-16T08:00:08;18.57;;;6.67;;
74074;SDS011;62428;51.412;5.432;2023-04-16T08:02:34;15.27;;;7.05;;
74074;SDS011;62428;51.412;5.432;2023-04-16T08:05:00;18.65;;;6.68;;
74074;SDS011;62428;51.412;5.432;2023-04-16T08:07:25;18.63;;;7.20;;
74074;SDS011;62428;51.412;5.432;2023-04-16T08:09:51;21.77;;;7.73;;
74074;SDS011;62428;51.412;5.432;2023-04-16T08:12:17;16.67;;;6.95;;
74074;SDS011;62428;51.412;5.432;2023-04-16T08:14:43;17.98;;;7.07;;
74074;SDS011;62428;51.412;5.432;2023-04-16T08:17:13;20.13;;;7.63;;
74074;SDS011;62428;51.412;5.432;2023-04-16T08:19:39;18.50;;;6.95;;
74074;SDS011;62428;51.412;5.432;2023-04-16T08:22:04;22.98;;;7.57;;
74074;SDS011;62428;51.412;5.432;2023-04-16T08:24:30;17.90;;;7.25;;
74074;SDS011;62428;51.412;5.432;2023-04-16T08:26:55;18.57;;;7.40;;
74074;SDS011;62428;51.412;5.432;2023-04-16T08:29:20;25.47;;;7.90;;
74074;SDS011;62428;51.412;5.432;2023-04-16T08:31:48;18.27;;;7.88;;
74074;SDS011;62428;51.412;5.432;2023-04-16T08:34:14;19.03;;;7.07;;
74074;SDS011;62428;51.412;5.432;2023-04-16T08:36:39;26.70;;;8.23;;
74074;SDS011;62428;51.412;5.432;2023-04-16T08:39:05;20.67;;;7.60;;
74074;SDS011;62428;51.412;5.432;2023-04-16T08:41:31;22.07;;;7.50;;
74074;SDS011;62428;51.412;5.432;2023-04-16T08:44:03;22.48;;;7.45;;
74074;SDS011;62428;51.412;5.432;2023-04-16T08:46:32;22.02;;;8.15;;
74074;SDS011;62428;51.412;5.432;2023-04-16T08:49:01;23.05;;;8.50;;
74074;SDS011;62428;51.412;5.432;2023-04-16T08:51:29;25.25;;;8.77;;
74074;SDS011;62428;51.412;5.432;2023-04-16T08:53:59;26.10;;;8.57;;
74074;SDS011;62428;51.412;5.432;2023-04-16T08:56:28;28.17;;;7.97;;
74074;SDS011;62428;51.412;5.432;2023-04-16T08:58:55;23.48;;;8.90;;
74074;SDS011;62428;51.412;5.432;2023-04-16T09:01:22;25.70;;;8.43;;
74074;SDS011;62428;51.412;5.432;2023-04-16T09:03:49;23.90;;;8.13;;
74074;SDS011;62428;51.412;5.432;2023-04-16T09:06:15;25.95;;;8.77;;
74074;SDS011;62428;51.412;5.432;2023-04-16T09:08:42;22.75;;;8.25;;
74074;SDS011;62428;51.412;5.432;2023-04-16T09:11:09;26.17;;;8.88;;
74074;SDS011;62428;51.412;5.432;2023-04-16T09:13:36;25.25;;;8.98;;
74074;SDS011;62428;51.412;5.432;2023-04-16T09:16:02;25.88;;;9.20;;
74074;SDS011;62428;51.412;5.432;2023-04-16T09:18:29;28.05;;;9.18;;
74074;SDS011;62428;51.412;5.432;2023-04-16T09:20:54;30.58;;;8.50;;
74074;SDS011;62428;51.412;5.432;2023-04-16T09:23:21;25.00;;;8.63;;
74074;SDS011;62428;51.412;5.432;2023-04-16T09:25:46;31.95;;;9.15;;
74074;SDS011;62428;51.412;5.432;2023-04-16T09:28:11;27.35;;;9.23;;
74074;SDS011;62428;51.412;5.432;2023-04-16T09:30:37;32.87;;;9.13;;
74074;SDS011;62428;51.412;5.432;2023-04-16T09:33:18;28.20;;;9.23;;
74074;SDS011;62428;51.412;5.432;2023-04-16T09:35:48;30.13;;;8.80;;
74074;SDS011;62428;51.412;5.432;2023-04-16T09:38:14;27.50;;;8.50;;
74074;SDS011;62428;51.412;5.432;2023-04-16T09:40:40;23.50;;;8.88;;
74074;SDS011;62428;51.412;5.432;2023-04-16T09:43:09;26.77;;;9.23;;
74074;SDS011;62428;51.412;5.432;2023-04-16T09:45:48;29.17;;;9.25;;
74074;SDS011;62428;51.412;5.432;2023-04-16T09:48:15;29.35;;;9.90;;
74074;SDS011;62428;51.412;5.432;2023-04-16T09:50:45;29.23;;;9.43;;
74074;SDS011;62428;51.412;5.432;2023-04-16T09:53:20;23.48;;;8.70;;
74074;SDS011;62428;51.412;5.432;2023-04-16T09:55:51;23.65;;;8.68;;
74074;SDS011;62428;51.412;5.432;2023-04-16T09:58:19;24.42;;;8.98;;
74074;SDS011;62428;51.412;5.432;2023-04-16T10:00:45;34.13;;;9.27;;
74074;SDS011;62428;51.412;5.432;2023-04-16T10:03:10;27.17;;;9.33;;
74074;SDS011;62428;51.412;5.432;2023-04-16T10:05:36;26.90;;;9.02;;
74074;SDS011;62428;51.412;5.432;2023-04-16T10:08:01;26.80;;;8.87;;
74074;SDS011;62428;51.412;5.432;2023-04-16T10:10:27;25.23;;;9.30;;
74074;SDS011;62428;51.412;5.432;2023-04-16T10:12:54;24.50;;;8.35;;
74074;SDS011;62428;51.412;5.432;2023-04-16T10:15:20;24.58;;;9.13;;
74074;SDS011;62428;51.412;5.432;2023-04-16T10:17:46;27.58;;;9.45;;
74074;SDS011;62428;51.412;5.432;2023-04-16T10:20:11;24.15;;;8.57;;
74074;SDS011;62428;51.412;5.432;2023-04-16T10:22:38;26.85;;;10.13;;
74074;SDS011;62428;51.412;5.432;2023-04-16T10:25:04;25.70;;;9.03;;
74074;SDS011;62428;51.412;5.432;2023-04-16T10:27:31;33.03;;;10.02;;
74074;SDS011;62428;51.412;5.432;2023-04-16T10:29:57;25.08;;;8.90;;
74074;SDS011;62428;51.412;5.432;2023-04-16T10:32:23;20.50;;;8.02;;
74074;SDS011;62428;51.412;5.432;2023-04-16T10:34:52;34.88;;;9.77;;
74074;SDS011;62428;51.412;5.432;2023-04-16T10:37:25;21.70;;;8.90;;
74074;SDS011;62428;51.412;5.432;2023-04-16T10:39:53;27.23;;;9.45;;
74074;SDS011;62428;51.412;5.432;2023-04-16T10:42:19;27.33;;;8.83;;
74074;SDS011;62428;51.412;5.432;2023-04-16T10:44:45;30.58;;;9.07;;
74074;SDS011;62428;51.412;5.432;2023-04-16T10:47:11;27.03;;;8.90;;
74074;SDS011;62428;51.412;5.432;2023-04-16T10:49:37;24.00;;;8.50;;
74074;SDS011;62428;51.412;5.432;2023-04-16T10:52:13;22.43;;;9.53;;
74074;SDS011;62428;51.412;5.432;2023-04-16T10:54:42;25.08;;;10.23;;
74074;SDS011;62428;51.412;5.432;2023-04-16T10:57:09;26.90;;;8.80;;
74074;SDS011;62428;51.412;5.432;2023-04-16T10:59:40;26.88;;;9.55;;
74074;SDS011;62428;51.412;5.432;2023-04-16T11:02:07;22.85;;;9.10;;
74074;SDS011;62428;51.412;5.432;2023-04-16T11:04:38;25.55;;;9.30;;
74074;SDS011;62428;51.412;5.432;2023-04-16T11:15:15;22.65;;;8.57;;
74074;SDS011;62428;51.412;5.432;2023-04-16T11:17:47;27.33;;;9.20;;
74074;SDS011;62428;51.412;5.432;2023-04-16T11:20:15;22.35;;;9.15;;
74074;SDS011;62428;51.412;5.432;2023-04-16T11:22:42;28.10;;;9.68;;
74074;SDS011;62428;51.412;5.432;2023-04-16T11:25:09;18.75;;;8.75;;
74074;SDS011;62428;51.412;5.432;2023-04-16T11:27:35;22.33;;;9.63;;
74074;SDS011;62428;51.412;5.432;2023-04-16T11:30:03;21.52;;;8.75;;
74074;SDS011;62428;51.412;5.432;2023-04-16T11:32:30;28.92;;;10.25;;
74074;SDS011;62428;51.412;5.432;2023-04-16T11:34:57;25.05;;;9.80;;
74074;SDS011;62428;51.412;5.432;2023-04-16T11:37:30;31.08;;;9.15;;
74074;SDS011;62428;51.412;5.432;2023-04-16T11:39:58;28.65;;;10.88;;
74074;SDS011;62428;51.412;5.432;2023-04-16T11:42:23;22.55;;;9.25;;
74074;SDS011;62428;51.412;5.432;2023-04-16T11:44:54;25.40;;;10.57;;
74074;SDS011;62428;51.412;5.432;2023-04-16T11:47:21;23.00;;;9.70;;
74074;SDS011;62428;51.412;5.432;2023-04-16T11:49:47;25.95;;;9.80;;
74074;SDS011;62428;51.412;5.432;2023-04-16T11:52:13;26.33;;;10.03;;
74074;SDS011;62428;51.412;5.432;2023-04-16T11:54:49;24.83;;;9.95;;
74074;SDS011;62428;51.412;5.432;2023-04-16T11:57:14;28.55;;;10.30;;
74074;SDS011;62428;51.412;5.432;2023-04-16T11:59:48;25.35;;;9.75;;
74074;SDS011;62428;51.412;5.432;2023-04-16T12:02:13;30.07;;;10.23;;
74074;SDS011;62428;51.412;5.432;2023-04-16T12:04:39;24.60;;;8.88;;
74074;SDS011;62428;51.412;5.432;2023-04-16T12:09:31;24.13;;;9.85;;
74074;SDS011;62428;51.412;5.432;2023-04-16T12:11:58;26.33;;;9.57;;
74074;SDS011;62428;51.412;5.432;2023-04-16T12:14:24;22.70;;;9.25;;
74074;SDS011;62428;51.412;5.432;2023-04-16T12:16:50;24.55;;;10.30;;
74074;SDS011;62428;51.412;5.432;2023-04-16T12:19:15;23.73;;;9.33;;
74074;SDS011;62428;51.412;5.432;2023-04-16T12:24:12;22.20;;;9.90;;
74074;SDS011;62428;51.412;5.432;2023-04-16T12:26:43;21.95;;;9.07;;
74074;SDS011;62428;51.412;5.432;2023-04-16T12:29:16;24.40;;;9.45;;
74074;SDS011;62428;51.412;5.432;2023-04-16T12:31:42;22.17;;;8.65;;
74074;SDS011;62428;51.412;5.432;2023-04-16T12:34:08;22.77;;;8.57;;
74074;SDS011;62428;51.412;5.432;2023-04-16T12:36:34;24.65;;;9.07;;
74074;SDS011;62428;51.412;5.432;2023-04-16T12:39:00;19.73;;;8.38;;
74074;SDS011;62428;51.412;5.432;2023-04-16T12:41:25;19.00;;;9.10;;
74074;SDS011;62428;51.412;5.432;2023-04-16T12:43:50;20.33;;;8.73;;
74074;SDS011;62428;51.412;5.432;2023-04-16T12:46:16;22.47;;;8.53;;
74074;SDS011;62428;51.412;5.432;2023-04-16T12:48:41;24.17;;;8.67;;
74074;SDS011;62428;51.412;5.432;2023-04-16T12:51:07;17.48;;;8.30;;
74074;SDS011;62428;51.412;5.432;2023-04-16T12:53:33;18.90;;;8.57;;
74074;SDS011;62428;51.412;5.432;2023-04-16T12:55:58;15.77;;;7.43;;
74074;SDS011;62428;51.412;5.432;2023-04-16T12:58:24;17.67;;;8.03;;
74074;SDS011;62428;51.412;5.432;2023-04-16T13:00:50;18.13;;;8.80;;
74074;SDS011;62428;51.412;5.432;2023-04-16T13:03:15;22.83;;;9.00;;
74074;SDS011;62428;51.412;5.432;2023-04-16T13:05:40;24.27;;;8.70;;
74074;SDS011;62428;51.412;5.432;2023-04-16T13:08:07;19.75;;;8.80;;
74074;SDS011;62428;51.412;5.432;2023-04-16T13:10:33;18.13;;;8.53;;
74074;SDS011;62428;51.412;5.432;2023-04-16T13:12:59;18.20;;;8.35;;
74074;SDS011;62428;51.412;5.432;2023-04-16T13:15:24;20.00;;;8.00;;
74074;SDS011;62428;51.412;5.432;2023-04-16T13:17:50;17.67;;;8.17;;
74074;SDS011;62428;51.412;5.432;2023-04-16T13:20:15;19.27;;;8.40;;
74074;SDS011;62428;51.412;5.432;2023-04-16T13:22:40;17.27;;;8.50;;
74074;SDS011;62428;51.412;5.432;2023-04-16T13:25:06;18.33;;;8.17;;
74074;SDS011;62428;51.412;5.432;2023-04-16T13:27:32;22.38;;;8.15;;
74074;SDS011;62428;51.412;5.432;2023-04-16T13:29:57;22.37;;;8.73;;
74074;SDS011;62428;51.412;5.432;2023-04-16T13:32:22;19.37;;;8.77;;
74074;SDS011;62428;51.412;5.432;2023-04-16T13:34:48;17.73;;;8.27;;
74074;SDS011;62428;51.412;5.432;2023-04-16T13:37:13;20.65;;;9.15;;
74074;SDS011;62428;51.412;5.432;2023-04-16T13:39:39;17.90;;;8.27;;
74074;SDS011;62428;51.412;5.432;2023-04-16T13:42:04;15.33;;;7.77;;
74074;SDS011;62428;51.412;5.432;2023-04-16T13:44:30;18.23;;;8.53;;
74074;SDS011;62428;51.412;5.432;2023-04-16T13:46:55;16.60;;;7.57;;
74074;SDS011;62428;51.412;5.432;2023-04-16T13:49:20;20.20;;;7.75;;
74074;SDS011;62428;51.412;5.432;2023-04-16T13:51:46;17.45;;;8.30;;
74074;SDS011;62428;51.412;5.432;2023-04-16T13:54:11;19.60;;;9.27;;
74074;SDS011;62428;51.412;5.432;2023-04-16T13:56:37;16.27;;;8.00;;
74074;SDS011;62428;51.412;5.432;2023-04-16T13:59:03;18.58;;;8.18;;
74074;SDS011;62428;51.412;5.432;2023-04-16T14:01:28;18.83;;;8.70;;
74074;SDS011;62428;51.412;5.432;2023-04-16T14:03:53;19.67;;;8.50;;
74074;SDS011;62428;51.412;5.432;2023-04-16T14:06:19;18.88;;;8.75;;
74074;SDS011;62428;51.412;5.432;2023-04-16T14:08:45;19.43;;;8.40;;
74074;SDS011;62428;51.412;5.432;2023-04-16T14:11:10;14.68;;;8.35;;
74074;SDS011;62428;51.412;5.432;2023-04-16T14:13:36;23.40;;;8.47;;
74074;SDS011;62428;51.412;5.432;2023-04-16T14:16:01;16.17;;;7.93;;
74074;SDS011;62428;51.412;5.432;2023-04-16T14:18:27;17.10;;;8.20;;
74074;SDS011;62428;51.412;5.432;2023-04-16T14:20:52;19.88;;;7.78;;
74074;SDS011;62428;51.412;5.432;2023-04-16T14:23:17;15.32;;;7.72;;
74074;SDS011;62428;51.412;5.432;2023-04-16T14:25:42;18.07;;;7.70;;
74074;SDS011;62428;51.412;5.432;2023-04-16T14:28:08;15.20;;;7.87;;
74074;SDS011;62428;51.412;5.432;2023-04-16T14:30:33;17.40;;;7.90;;
74074;SDS011;62428;51.412;5.432;2023-04-16T14:32:58;19.87;;;8.23;;
74074;SDS011;62428;51.412;5.432;2023-04-16T14:35:24;15.50;;;7.87;;
74074;SDS011;62428;51.412;5.432;2023-04-16T14:37:49;15.30;;;8.20;;
74074;SDS011;62428;51.412;5.432;2023-04-16T14:40:15;19.45;;;8.05;;
74074;SDS011;62428;51.412;5.432;2023-04-16T14:42:40;16.40;;;7.80;;
74074;SDS011;62428;51.412;5.432;2023-04-16T14:45:06;16.63;;;7.60;;